CPX442 Details

Departure: Philadelphia International Airport (KPHL)
Arrival: Cincinnati/Northern Kentucky International Airport (KCVG)
Route: MXE PENSY J110 FLIRT J6 MRB J6 COLNS GAVNN4


Current Weather Information
KPHL 250954Z 14004KT 10SM FEW090 FEW250 14/10 A3020 RMK AO2 SLP225 T01440100 $
KCVG 250952Z 20004KT 10SM FEW060 FEW110 SCT250 19/17 A3004 RMK AO2 SLP162 T01940167